Time;durP1;ratioP1;P1;durP2;ratioP2;P2;SDS_P1;SDS_P2;PMS_P1;PMS_P2;Temp;Humidity;BMP_temperature;BMP_pressure;BME280_temperature;BME280_humidity;BME280_pressure;Samples;Min_cycle;Max_cycle;Signal;HPM_P1;HPM_P2
2022/03/22 00:01:28;;;;;;;42.35;28.50;;;6.40;99.90;;;;;;4964551;28;20043;-57
2022/03/22 00:03:54;;;;;;;42.58;28.65;;;6.40;99.90;;;;;;4963606;28;20407;-58
2022/03/22 00:06:20;;;;;;;43.03;28.67;;;6.40;99.90;;;;;;4964424;28;20047;-57
2022/03/22 00:08:46;;;;;;;43.65;28.05;;;6.30;99.90;;;;;;4963266;29;20511;-57
2022/03/22 00:11:13;;;;;;;45.25;29.90;;;6.30;99.90;;;;;;4964768;28;20051;-57
2022/03/22 00:13:39;;;;;;;42.20;28.13;;;6.30;99.90;;;;;;4963621;28;20151;-58
2022/03/22 00:16:07;;;;;;;43.25;29.25;;;6.30;99.90;;;;;;4963871;28;20151;-58
2022/03/22 00:18:34;;;;;;;46.00;30.02;;;6.30;99.90;;;;;;4963887;28;20519;-57
2022/03/22 00:21:00;;;;;;;44.05;28.60;;;6.20;99.90;;;;;;4963437;28;20078;-57
2022/03/22 00:23:25;;;;;;;46.88;29.92;;;6.20;99.90;;;;;;4964171;29;20054;-58
2022/03/22 00:25:51;;;;;;;47.08;29.50;;;6.20;99.90;;;;;;4963305;28;20059;-58
2022/03/22 00:28:17;;;;;;;49.30;31.08;;;6.20;99.90;;;;;;4963077;29;20050;-57
2022/03/22 00:30:43;;;;;;;47.30;30.38;;;6.20;99.90;;;;;;4962979;29;20079;-58
2022/03/22 00:33:10;;;;;;;46.25;30.23;;;6.20;99.90;;;;;;4964091;29;20039;-58
2022/03/22 00:35:37;;;;;;;41.50;27.52;;;6.10;99.90;;;;;;4963562;28;20075;-58
2022/03/22 00:38:12;;;;;;;47.47;30.60;;;6.20;99.90;;;;;;4963427;28;20043;-57
2022/03/22 00:40:38;;;;;;;49.40;30.95;;;6.20;99.90;;;;;;4963982;28;20053;-57
2022/03/22 00:43:04;;;;;;;44.45;29.80;;;6.20;99.90;;;;;;4961644;29;20062;-57
2022/03/22 00:45:34;;;;;;;43.28;29.52;;;6.10;99.90;;;;;;4963767;29;20410;-58
2022/03/22 00:48:02;;;;;;;46.35;29.83;;;6.00;99.90;;;;;;4961629;29;20044;-57
2022/03/22 00:50:33;;;;;;;46.15;30.08;;;6.00;99.90;;;;;;4963528;28;20051;-58
2022/03/22 00:53:00;;;;;;;44.67;29.67;;;6.00;99.90;;;;;;4963535;28;20051;-55
2022/03/22 00:55:27;;;;;;;47.85;30.25;;;6.10;99.90;;;;;;4962768;28;20043;-57
2022/03/22 00:57:54;;;;;;;49.63;31.58;;;6.00;99.90;;;;;;4962352;29;20039;-58
2022/03/22 01:00:21;;;;;;;45.15;30.20;;;6.00;99.90;;;;;;4962177;28;20686;-57
2022/03/22 01:02:49;;;;;;;46.38;30.48;;;6.00;99.90;;;;;;4962621;29;20055;-57
2022/03/22 01:05:19;;;;;;;43.42;29.48;;;6.00;99.90;;;;;;4961322;29;20086;-57
2022/03/22 01:07:48;;;;;;;44.65;30.67;;;6.00;99.90;;;;;;4963356;28;20058;-58
2022/03/22 01:10:15;;;;;;;45.33;31.05;;;6.00;99.90;;;;;;4963185;28;20484;-57
2022/03/22 01:12:43;;;;;;;48.35;31.88;;;6.00;99.90;;;;;;4962370;28;20063;-57
2022/03/22 01:15:15;;;;;;;46.00;31.63;;;6.00;99.90;;;;;;4963524;28;20077;-57
2022/03/22 01:17:45;;;;;;;45.42;31.55;;;5.90;99.90;;;;;;4962064;28;20114;-58
2022/03/22 01:20:11;;;;;;;47.25;30.90;;;5.90;99.90;;;;;;4963346;28;20082;-58
2022/03/22 01:22:39;;;;;;;47.13;32.13;;;5.90;99.90;;;;;;4962502;28;20059;-58
2022/03/22 01:25:17;;;;;;;44.78;29.83;;;5.90;99.90;;;;;;4962582;28;20055;-58
2022/03/22 01:27:51;;;;;;;49.00;31.98;;;5.90;99.90;;;;;;4962765;28;20058;-57
2022/03/22 01:30:19;;;;;;;47.78;31.88;;;5.90;99.90;;;;;;4961781;28;20051;-58
2022/03/22 01:32:52;;;;;;;46.10;30.90;;;5.90;99.90;;;;;;4963523;28;20043;-57
2022/03/22 01:35:19;;;;;;;44.92;31.60;;;5.90;99.90;;;;;;4962366;28;20055;-58
2022/03/22 01:37:48;;;;;;;47.10;31.08;;;5.90;99.90;;;;;;4962601;28;20036;-57
2022/03/22 01:40:17;;;;;;;52.80;32.63;;;5.90;99.90;;;;;;4962696;28;20039;-57
2022/03/22 01:42:43;;;;;;;49.50;32.83;;;5.80;99.90;;;;;;4960705;29;20253;-58
2022/03/22 01:45:09;;;;;;;48.28;33.65;;;5.80;99.90;;;;;;4962958;28;20127;-58
2022/03/22 01:47:40;;;;;;;49.58;32.60;;;5.90;99.90;;;;;;4960140;29;20061;-57
2022/03/22 01:50:08;;;;;;;43.88;29.67;;;5.90;99.90;;;;;;4961439;29;20050;-58
2022/03/22 01:52:36;;;;;;;46.88;30.55;;;5.90;99.90;;;;;;4945088;29;20066;-58
2022/03/22 01:55:03;;;;;;;45.40;30.65;;;5.90;99.90;;;;;;4962103;28;20102;-58
2022/03/22 01:57:30;;;;;;;46.75;32.08;;;5.90;99.90;;;;;;4961212;29;20047;-57
2022/03/22 01:59:56;;;;;;;49.35;31.58;;;5.90;99.90;;;;;;4961819;28;20047;-58
2022/03/22 02:07:57;;;;;;;49.65;31.58;;;5.90;99.90;;;;;;4961863;29;20106;-57
2022/03/22 02:10:23;;;;;;;46.75;31.40;;;5.80;99.90;;;;;;4962267;28;20415;-57
2022/03/22 02:12:49;;;;;;;50.72;32.88;;;5.90;99.90;;;;;;4961562;29;20047;-57
2022/03/22 02:15:15;;;;;;;44.45;31.83;;;5.80;99.90;;;;;;4962422;29;20447;-58
2022/03/22 02:17:45;;;;;;;45.72;29.52;;;5.80;99.90;;;;;;4960952;28;20049;-57
2022/03/22 02:20:15;;;;;;;47.63;31.13;;;5.80;99.90;;;;;;4962474;28;20047;-57
2022/03/22 02:23:11;;;;;;;47.35;30.60;;;5.80;99.90;;;;;;4960550;29;20137;-58
2022/03/22 02:25:37;;;;;;;44.10;29.75;;;5.80;99.90;;;;;;4947737;28;20757;-57
2022/03/22 02:28:03;;;;;;;47.83;31.65;;;5.80;99.90;;;;;;4962512;28;20071;-57
2022/03/22 02:30:29;;;;;;;49.22;33.17;;;5.80;99.90;;;;;;4961037;28;20035;-57
2022/03/22 02:32:59;;;;;;;45.72;29.85;;;5.80;99.90;;;;;;4962715;28;20047;-58
2022/03/22 02:35:25;;;;;;;45.45;31.33;;;5.80;99.90;;;;;;4961852;28;20436;-57
2022/03/22 02:37:51;;;;;;;44.08;30.88;;;5.80;99.90;;;;;;4961666;28;20515;-58
2022/03/22 02:40:18;;;;;;;50.65;32.13;;;5.80;99.90;;;;;;4962419;28;20047;-58
2022/03/22 02:42:49;;;;;;;47.08;31.13;;;5.70;99.90;;;;;;4964913;28;20043;-58
2022/03/22 02:45:15;;;;;;;47.03;32.80;;;5.70;99.90;;;;;;4965992;28;20095;-58
2022/03/22 02:47:42;;;;;;;47.08;31.77;;;5.80;99.90;;;;;;4964693;28;20043;-57
2022/03/22 02:50:09;;;;;;;48.17;31.98;;;5.90;99.90;;;;;;4964705;29;20047;-58
2022/03/22 02:52:36;;;;;;;50.30;34.45;;;5.90;99.90;;;;;;4947943;28;20055;-57
2022/03/22 02:55:04;;;;;;;50.88;32.45;;;5.90;99.90;;;;;;4965186;28;20055;-58
2022/03/22 02:57:30;;;;;;;55.83;34.60;;;6.00;99.90;;;;;;4948208;29;20043;-58
2022/03/22 02:59:56;;;;;;;49.22;31.95;;;6.00;99.90;;;;;;4965107;28;20050;-58
2022/03/22 03:02:22;;;;;;;48.50;32.40;;;6.10;99.90;;;;;;4964706;29;20109;-58
2022/03/22 03:04:47;;;;;;;46.53;32.88;;;6.10;99.90;;;;;;4964654;29;20045;-58
2022/03/22 03:07:13;;;;;;;51.08;34.60;;;6.00;99.90;;;;;;4965734;29;20058;-57
2022/03/22 03:09:39;;;;;;;52.92;34.17;;;6.10;99.90;;;;;;4965013;29;20043;-58
2022/03/22 03:12:05;;;;;;;49.28;33.28;;;6.00;99.90;;;;;;4965067;29;20067;-57
2022/03/22 03:14:40;;;;;;;47.33;32.00;;;6.00;99.90;;;;;;4965404;28;20468;-57
2022/03/22 03:17:10;;;;;;;47.58;32.38;;;6.00;99.90;;;;;;4962897;29;20055;-58
2022/03/22 03:19:37;;;;;;;49.22;32.55;;;6.00;99.90;;;;;;4965714;28;20051;-57
2022/03/22 03:22:03;;;;;;;52.38;33.47;;;5.90;99.90;;;;;;4964021;28;20075;-57
2022/03/22 03:24:30;;;;;;;50.47;32.55;;;5.90;99.90;;;;;;4947784;29;20058;-56
2022/03/22 03:26:56;;;;;;;49.40;33.42;;;5.90;99.90;;;;;;4964954;28;20054;-57
2022/03/22 03:29:22;;;;;;;49.88;32.35;;;5.90;99.90;;;;;;4964804;28;20089;-58
2022/03/22 03:31:48;;;;;;;47.15;32.25;;;5.90;99.90;;;;;;4963763;29;20050;-57
2022/03/22 03:34:15;;;;;;;49.28;33.45;;;5.90;99.90;;;;;;4962584;29;20512;-57
2022/03/22 03:36:41;;;;;;;50.35;32.15;;;5.90;99.90;;;;;;4964046;29;20061;-57
2022/03/22 03:39:08;;;;;;;50.78;32.88;;;5.80;99.90;;;;;;4963983;29;20102;-58
2022/03/22 03:47:03;;;;;;;51.22;32.72;;;5.70;99.90;;;;;;4963823;28;20043;-57
2022/03/22 03:49:34;;;;;;;51.25;33.45;;;5.60;99.90;;;;;;4965206;28;20070;-59
2022/03/22 03:52:00;;;;;;;50.10;33.28;;;5.60;99.90;;;;;;4963017;28;20051;-57
2022/03/22 03:54:26;;;;;;;53.13;32.75;;;5.60;99.90;;;;;;4963652;29;20050;-58
2022/03/22 03:56:52;;;;;;;51.33;33.38;;;5.60;99.90;;;;;;4962946;29;20047;-58
2022/03/22 03:59:18;;;;;;;49.08;32.78;;;5.60;99.90;;;;;;4964024;29;20047;-58
2022/03/22 04:01:44;;;;;;;48.30;32.45;;;5.60;99.90;;;;;;4964686;29;20057;-58
2022/03/22 04:04:10;;;;;;;52.95;34.13;;;5.60;99.90;;;;;;4962249;29;20047;-58
2022/03/22 04:06:36;;;;;;;49.47;32.55;;;5.70;99.90;;;;;;4964875;28;20403;-58
2022/03/22 04:09:02;;;;;;;51.03;32.38;;;5.60;99.90;;;;;;4963398;29;20098;-57
2022/03/22 04:11:27;;;;;;;49.60;33.33;;;5.60;99.90;;;;;;4963138;29;20085;-58
2022/03/22 04:13:53;;;;;;;52.17;34.38;;;5.60;99.90;;;;;;4963764;29;20043;-58
2022/03/22 04:16:19;;;;;;;49.15;33.35;;;5.60;99.90;;;;;;4963598;28;20090;-57
2022/03/22 04:18:45;;;;;;;50.47;33.47;;;5.60;99.90;;;;;;4964128;29;20046;-58
2022/03/22 04:21:11;;;;;;;50.50;33.15;;;5.60;99.90;;;;;;4963404;28;20062;-59
2022/03/22 04:23:37;;;;;;;55.00;33.88;;;5.70;99.90;;;;;;4964431;28;20080;-57
2022/03/22 04:26:03;;;;;;;51.47;34.05;;;5.70;99.90;;;;;;4963255;29;20047;-58
2022/03/22 04:33:58;;;;;;;52.00;33.88;;;5.80;99.90;;;;;;4963246;29;20055;-58
2022/03/22 04:36:24;;;;;;;51.00;33.17;;;5.70;99.90;;;;;;4947104;29;20122;-57
2022/03/22 04:38:50;;;;;;;49.80;32.63;;;5.70;99.90;;;;;;4962739;29;20070;-57
2022/03/22 04:41:15;;;;;;;49.13;33.20;;;5.70;99.90;;;;;;4964201;28;20051;-57
2022/03/22 04:43:41;;;;;;;50.83;32.47;;;5.70;99.90;;;;;;4962864;29;20050;-58
2022/03/22 04:46:07;;;;;;;51.83;33.15;;;5.80;99.90;;;;;;4963279;29;20119;-58
2022/03/22 04:48:34;;;;;;;47.38;31.85;;;5.80;99.90;;;;;;4962262;29;20103;-58
2022/03/22 04:56:48;;;;;;;47.25;31.73;;;5.80;99.90;;;;;;4962838;28;20338;-58
2022/03/22 04:59:19;;;;;;;53.70;33.97;;;5.80;99.90;;;;;;4963105;28;20054;-58
2022/03/22 05:01:45;;;;;;;50.38;33.00;;;5.70;99.90;;;;;;4963536;28;20047;-57
2022/03/22 05:04:12;;;;;;;46.83;31.42;;;5.80;99.90;;;;;;4961485;28;20043;-58
2022/03/22 05:06:38;;;;;;;48.90;34.10;;;5.80;99.90;;;;;;4963879;28;20404;-58
2022/03/22 05:09:05;;;;;;;52.17;34.10;;;5.80;99.90;;;;;;4962477;28;20054;-58
2022/03/22 05:11:31;;;;;;;51.13;32.33;;;5.80;99.90;;;;;;4962005;28;20090;-58
2022/03/22 05:13:58;;;;;;;49.55;32.95;;;5.90;99.90;;;;;;4962910;29;20039;-57
2022/03/22 05:16:24;;;;;;;52.88;35.25;;;5.90;99.90;;;;;;4961017;29;20047;-58
2022/03/22 05:18:50;;;;;;;51.22;33.33;;;5.80;99.90;;;;;;4963182;28;20075;-57
2022/03/22 05:21:19;;;;;;;49.88;32.80;;;5.90;99.90;;;;;;4962049;28;20042;-58
2022/03/22 05:23:46;;;;;;;47.13;32.10;;;5.80;99.90;;;;;;4962274;29;20602;-58
2022/03/22 05:26:13;;;;;;;53.38;33.08;;;5.90;99.90;;;;;;4959808;29;20046;-58
2022/03/22 05:28:40;;;;;;;45.83;31.80;;;5.90;99.90;;;;;;4961977;28;20095;-58
2022/03/22 05:31:09;;;;;;;50.80;33.08;;;5.90;99.90;;;;;;4961687;28;20408;-58
2022/03/22 05:33:36;;;;;;;48.75;33.05;;;5.90;99.90;;;;;;4961002;28;20043;-57
2022/03/22 05:36:03;;;;;;;51.97;34.08;;;6.00;99.90;;;;;;4961951;28;20575;-57
2022/03/22 05:38:29;;;;;;;48.35;31.98;;;6.00;99.90;;;;;;4961084;28;20051;-57
2022/03/22 05:40:56;;;;;;;51.92;33.10;;;6.00;99.90;;;;;;4962144;29;20047;-58
2022/03/22 05:43:22;;;;;;;48.00;31.40;;;6.00;99.90;;;;;;4960600;29;20487;-56
2022/03/22 05:45:48;;;;;;;48.60;32.80;;;6.00;99.90;;;;;;4961299;28;20050;-57
2022/03/22 05:48:15;;;;;;;48.42;33.08;;;5.90;99.90;;;;;;4961286;28;20038;-57
2022/03/22 05:50:41;;;;;;;54.33;34.55;;;6.00;99.90;;;;;;4959347;29;20054;-57
2022/03/22 05:53:07;;;;;;;51.20;33.00;;;6.00;99.90;;;;;;4961793;29;20122;-57
2022/03/22 05:55:33;;;;;;;46.50;31.05;;;6.00;99.90;;;;;;4960807;29;20039;-57
2022/03/22 05:57:58;;;;;;;51.28;32.45;;;6.00;99.90;;;;;;4960291;29;20453;-57
2022/03/22 06:00:24;;;;;;;50.72;33.88;;;6.00;99.90;;;;;;4960502;28;20055;-57
2022/03/22 06:02:50;;;;;;;48.08;32.13;;;6.10;99.90;;;;;;4961350;29;20047;-57
2022/03/22 06:05:16;;;;;;;50.05;33.35;;;6.10;99.90;;;;;;4959740;28;20062;-57
2022/03/22 06:07:43;;;;;;;46.03;31.95;;;6.10;99.90;;;;;;4960659;29;20098;-57
2022/03/22 06:10:12;;;;;;;50.60;33.28;;;6.10;99.90;;;;;;4961435;28;20043;-60
2022/03/22 06:13:04;;;;;;;51.55;32.92;;;6.10;99.90;;;;;;4959971;28;20107;-60
2022/03/22 06:15:31;;;;;;;52.50;32.65;;;6.20;99.90;;;;;;4957782;28;20114;-57
2022/03/22 06:18:00;;;;;;;52.60;32.88;;;6.10;99.90;;;;;;4960758;28;20082;-57
2022/03/22 06:20:31;;;;;;;51.88;33.45;;;6.20;99.90;;;;;;4959423;29;20070;-57
2022/03/22 06:22:58;;;;;;;52.45;31.38;;;6.20;99.90;;;;;;4960749;28;20055;-57
2022/03/22 06:25:25;;;;;;;49.15;31.73;;;6.20;99.90;;;;;;4958615;29;20058;-58
2022/03/22 06:27:52;;;;;;;51.30;33.08;;;6.20;99.90;;;;;;4961620;29;20174;-57
2022/03/22 06:30:18;;;;;;;48.10;33.80;;;6.30;99.90;;;;;;4958698;29;20105;-57
2022/03/22 06:32:53;;;;;;;49.50;33.33;;;6.20;99.90;;;;;;4961223;28;20040;-58
2022/03/22 06:35:22;;;;;;;49.67;32.47;;;6.30;99.90;;;;;;4961072;28;20051;-60
2022/03/22 06:37:49;;;;;;;49.80;32.45;;;6.30;99.90;;;;;;4960251;29;20047;-57
2022/03/22 06:40:16;;;;;;;47.63;31.60;;;6.40;99.90;;;;;;4961258;29;20063;-57
2022/03/22 06:42:42;;;;;;;49.03;32.42;;;6.30;99.90;;;;;;4959823;29;20126;-58
2022/03/22 06:45:10;;;;;;;50.85;33.95;;;6.40;99.90;;;;;;4961321;28;20072;-58
2022/03/22 06:47:37;;;;;;;55.05;33.08;;;6.40;99.90;;;;;;4959918;29;20054;-58
2022/03/22 06:50:03;;;;;;;50.00;31.33;;;6.40;99.90;;;;;;4960581;28;20051;-58
2022/03/22 06:52:29;;;;;;;50.50;32.72;;;6.40;99.90;;;;;;4960700;29;20070;-57
2022/03/22 06:54:55;;;;;;;52.05;33.75;;;6.30;99.90;;;;;;4959959;29;20059;-57
2022/03/22 06:57:21;;;;;;;48.67;31.45;;;6.40;99.90;;;;;;4959616;29;20050;-59
2022/03/22 06:59:46;;;;;;;49.80;32.38;;;6.40;99.90;;;;;;4959826;28;20087;-59
2022/03/22 07:02:12;;;;;;;48.35;32.90;;;6.50;99.90;;;;;;4959864;29;20051;-59
2022/03/22 07:04:38;;;;;;;47.00;31.10;;;6.60;99.90;;;;;;4959792;28;20070;-59
2022/03/22 07:07:04;;;;;;;48.30;31.52;;;6.60;99.90;;;;;;4959405;29;20039;-59
2022/03/22 07:09:30;;;;;;;53.00;31.90;;;6.60;99.90;;;;;;4960567;28;20082;-59
2022/03/22 07:11:56;;;;;;;52.33;33.25;;;6.70;99.90;;;;;;4959897;29;20051;-57
2022/03/22 07:14:27;;;;;;;48.30;31.55;;;6.70;99.90;;;;;;4960828;29;20075;-57
2022/03/22 07:16:53;;;;;;;48.95;31.17;;;6.70;99.90;;;;;;4959525;28;20043;-58
2022/03/22 07:19:21;;;;;;;47.67;31.83;;;6.80;99.90;;;;;;4961142;28;20065;-58
2022/03/22 07:21:48;;;;;;;47.72;31.80;;;6.90;99.90;;;;;;4958236;29;20046;-57
2022/03/22 07:24:18;;;;;;;47.40;30.13;;;6.90;99.90;;;;;;4960504;28;20043;-58
2022/03/22 07:26:45;;;;;;;47.97;31.90;;;7.00;99.90;;;;;;4961425;28;20047;-58
2022/03/22 07:29:11;;;;;;;47.38;30.70;;;7.10;99.90;;;;;;4963375;28;20095;-58
2022/03/22 07:31:41;;;;;;;50.75;32.38;;;7.20;99.90;;;;;;4963061;29;20082;-56
2022/03/22 07:34:11;;;;;;;48.88;31.13;;;7.30;99.90;;;;;;4963116;28;20082;-58
2022/03/22 07:36:39;;;;;;;47.17;31.23;;;7.40;99.90;;;;;;4963306;29;20045;-58
2022/03/22 07:39:08;;;;;;;46.72;32.17;;;7.50;99.90;;;;;;4963329;28;20095;-58
2022/03/22 07:41:36;;;;;;;47.60;31.67;;;7.70;99.90;;;;;;4963738;28;20043;-58
2022/03/22 07:44:03;;;;;;;47.85;30.73;;;7.80;99.90;;;;;;4962461;29;20085;-57
2022/03/22 07:46:30;;;;;;;48.53;31.23;;;7.90;99.90;;;;;;4962333;28;20095;-58
2022/03/22 07:52:58;;;;;;;48.55;31.70;;;7.90;99.90;;;;;;4964259;29;20039;-58
2022/03/22 07:54:26;;;;;;;44.50;30.58;;;8.10;99.90;;;;;;4963543;29;20103;-58
2022/03/22 07:56:52;;;;;;;45.25;28.88;;;8.10;99.90;;;;;;4963764;29;20054;-58
2022/03/22 07:59:18;;;;;;;47.65;31.92;;;8.20;99.90;;;;;;4962722;29;20127;-57
2022/03/22 08:01:44;;;;;;;47.83;30.02;;;8.30;99.90;;;;;;4964100;29;20099;-58
2022/03/22 08:04:09;;;;;;;44.13;30.83;;;8.40;99.90;;;;;;4962287;29;20458;-57
2022/03/22 08:06:35;;;;;;;45.97;31.15;;;8.50;99.90;;;;;;4962410;29;20153;-57
2022/03/22 08:09:01;;;;;;;48.50;31.25;;;8.70;99.90;;;;;;4962802;28;20070;-58
2022/03/22 08:11:27;;;;;;;43.13;31.02;;;8.80;99.90;;;;;;4961770;29;20653;-58
2022/03/22 08:13:53;;;;;;;48.38;31.10;;;8.90;99.90;;;;;;4963258;29;20134;-59
2022/03/22 08:16:18;;;;;;;45.33;29.92;;;9.10;99.90;;;;;;4962264;28;20075;-58
2022/03/22 08:18:44;;;;;;;48.72;30.08;;;9.20;99.90;;;;;;4963520;29;20039;-59
2022/03/22 08:21:10;;;;;;;45.70;29.30;;;9.30;99.90;;;;;;4962339;28;20087;-58
2022/03/22 08:23:36;;;;;;;42.80;28.58;;;9.50;99.90;;;;;;4963523;29;20082;-58
2022/03/22 08:26:02;;;;;;;43.45;29.30;;;9.60;99.90;;;;;;4962092;29;20043;-57
2022/03/22 08:28:27;;;;;;;42.65;30.17;;;9.70;99.90;;;;;;4963301;29;20054;-58
2022/03/22 08:30:53;;;;;;;42.60;29.60;;;9.90;99.90;;;;;;4962647;29;20051;-57
2022/03/22 08:33:19;;;;;;;42.03;29.55;;;10.00;99.90;;;;;;4961109;29;20501;-58
2022/03/22 08:35:47;;;;;;;46.10;30.25;;;10.20;99.90;;;;;;4945772;29;20115;-58
2022/03/22 08:38:19;;;;;;;46.10;28.02;;;10.40;99.90;;;;;;4961838;28;20051;-58
2022/03/22 08:40:45;;;;;;;44.03;27.83;;;10.40;99.90;;;;;;4963391;28;20043;-58
2022/03/22 08:43:11;;;;;;;41.13;28.65;;;10.50;99.90;;;;;;4961945;29;20562;-57
2022/03/22 08:45:37;;;;;;;43.17;28.80;;;10.60;99.90;;;;;;4962605;29;20040;-58
2022/03/22 08:48:09;;;;;;;44.13;30.25;;;10.70;99.90;;;;;;4962579;28;20050;-58
2022/03/22 08:50:35;;;;;;;46.63;28.10;;;10.70;99.90;;;;;;4961863;28;20171;-58
2022/03/22 08:53:01;;;;;;;42.28;28.92;;;10.70;99.90;;;;;;4962669;28;20061;-58
2022/03/22 08:55:29;;;;;;;38.83;26.80;;;10.80;99.90;;;;;;4961661;29;20102;-58
2022/03/22 08:57:55;;;;;;;43.83;28.83;;;10.80;99.90;;;;;;4963038;28;20051;-58
2022/03/22 09:00:22;;;;;;;43.72;30.38;;;10.90;99.90;;;;;;4960469;29;20043;-58
2022/03/22 09:02:51;;;;;;;41.17;29.13;;;11.00;99.90;;;;;;4962539;28;20058;-58
2022/03/22 09:08:06;;;;;;;41.65;29.48;;;11.10;99.90;;;;;;4961418;29;20051;-58
2022/03/22 09:10:32;;;;;;;43.53;29.42;;;11.10;99.90;;;;;;4962734;28;20130;-58
2022/03/22 09:12:58;;;;;;;45.72;30.50;;;11.20;99.90;;;;;;4961420;28;20039;-58
2022/03/22 09:15:27;;;;;;;47.17;31.42;;;11.20;99.90;;;;;;4962647;29;20091;-59
2022/03/22 09:17:54;;;;;;;43.45;30.33;;;11.20;99.90;;;;;;4961555;28;20047;-58
2022/03/22 09:20:20;;;;;;;42.83;30.73;;;11.20;99.90;;;;;;4961788;28;20103;-58
2022/03/22 09:22:49;;;;;;;43.83;30.85;;;11.20;99.90;;;;;;4962058;28;20043;-58
2022/03/22 09:25:16;;;;;;;44.83;30.58;;;11.20;99.90;;;;;;4943725;29;20047;-58
2022/03/22 09:27:43;;;;;;;45.70;29.77;;;11.20;99.90;;;;;;4962515;28;20039;-58
2022/03/22 09:30:10;;;;;;;44.45;29.75;;;11.40;99.90;;;;;;4960925;29;20567;-58
2022/03/22 09:32:36;;;;;;;42.85;29.75;;;11.40;99.90;;;;;;4961966;29;20055;-58
2022/03/22 09:35:06;;;;;;;43.63;29.90;;;11.50;99.90;;;;;;4961483;29;20050;-58
2022/03/22 09:37:36;;;;;;;46.30;31.10;;;11.60;99.90;;;;;;4961178;29;20114;-58
2022/03/22 09:40:03;;;;;;;42.90;29.52;;;11.70;99.90;;;;;;4962158;29;20066;-58
2022/03/22 09:42:30;;;;;;;44.65;30.33;;;11.80;99.90;;;;;;4960747;29;20073;-58
2022/03/22 09:45:00;;;;;;;45.20;29.05;;;11.80;99.90;;;;;;4962092;29;20055;-58
2022/03/22 09:47:29;;;;;;;44.85;29.42;;;11.90;99.90;;;;;;4960662;28;20099;-59
2022/03/22 09:49:58;;;;;;;39.25;27.65;;;12.00;99.90;;;;;;4961243;28;20086;-58
2022/03/22 09:52:24;;;;;;;44.08;29.45;;;12.10;99.90;;;;;;4961490;29;20114;-57
2022/03/22 09:54:50;;;;;;;41.10;28.67;;;12.10;99.90;;;;;;4960759;29;20047;-58
2022/03/22 09:57:16;;;;;;;42.88;29.13;;;12.20;99.90;;;;;;4961930;29;20170;-58
2022/03/22 09:59:42;;;;;;;43.53;29.35;;;12.30;99.90;;;;;;4960335;29;20055;-58
2022/03/22 10:02:09;;;;;;;46.78;27.92;;;12.30;99.90;;;;;;4960830;29;20581;-57
2022/03/22 10:04:40;;;;;;;41.65;27.95;;;12.50;99.90;;;;;;4960636;29;20096;-58
2022/03/22 10:07:07;;;;;;;41.03;27.45;;;12.50;99.90;;;;;;4961693;28;20083;-58
2022/03/22 10:09:39;;;;;;;40.58;27.60;;;12.60;99.90;;;;;;4961180;28;20732;-56
2022/03/22 10:12:13;;;;;;;39.72;25.83;;;12.80;99.90;;;;;;4960314;28;20055;-54
2022/03/22 10:14:41;;;;;;;41.03;26.77;;;12.80;99.90;;;;;;4961847;28;20050;-58
2022/03/22 10:17:15;;;;;;;42.85;28.02;;;12.90;99.90;;;;;;4960193;28;20050;-58
2022/03/22 10:19:50;;;;;;;38.78;26.67;;;13.00;99.90;;;;;;4961592;28;20039;-58
2022/03/22 10:22:22;;;;;;;41.03;27.70;;;13.10;99.90;;;;;;4960782;28;20154;-59
2022/03/22 10:24:52;;;;;;;38.83;26.83;;;13.10;99.90;;;;;;4960315;28;20089;-58
2022/03/22 10:27:32;;;;;;;40.70;27.25;;;13.20;99.90;;;;;;4961425;29;20071;-58
2022/03/22 10:30:00;;;;;;;38.25;26.25;;;13.30;99.90;;;;;;4960248;28;20047;-58
2022/03/22 10:32:50;;;;;;;38.35;25.20;;;13.40;99.90;;;;;;4961386;28;20071;-58
2022/03/22 10:35:22;;;;;;;38.13;26.77;;;13.50;99.90;;;;;;4960707;29;20054;-58
2022/03/22 10:37:51;;;;;;;40.15;25.73;;;13.60;99.90;;;;;;4958706;29;20067;-58
2022/03/22 10:40:35;;;;;;;38.60;26.38;;;13.70;99.90;;;;;;4961433;28;20100;-58
2022/03/22 10:43:19;;;;;;;41.33;26.52;;;13.80;99.90;;;;;;4960027;28;20051;-58
2022/03/22 10:45:50;;;;;;;38.13;26.13;;;13.90;99.90;;;;;;4960668;28;20051;-58
2022/03/22 10:48:22;;;;;;;39.15;24.70;;;14.00;99.90;;;;;;4961162;28;20043;-56
2022/03/22 10:50:49;;;;;;;39.70;25.25;;;14.10;99.90;;;;;;4960113;28;20228;-57
2022/03/22 10:53:20;;;;;;;39.03;24.95;;;14.20;99.90;;;;;;4961336;28;20050;-57
2022/03/22 10:55:46;;;;;;;38.50;24.38;;;14.30;99.90;;;;;;4958747;29;20051;-57
2022/03/22 10:58:14;;;;;;;36.50;23.73;;;14.30;99.90;;;;;;4961022;28;20118;-56
2022/03/22 11:00:45;;;;;;;38.58;25.20;;;14.40;99.90;;;;;;4961516;28;20070;-57
2022/03/22 11:03:14;;;;;;;37.50;25.85;;;14.50;99.90;;;;;;4964316;28;20103;-57
2022/03/22 11:05:43;;;;;;;37.65;25.98;;;14.50;99.90;;;;;;4964654;28;20053;-57
2022/03/22 11:08:10;;;;;;;44.42;27.52;;;14.60;99.90;;;;;;4963604;28;20057;-57
2022/03/22 11:10:36;;;;;;;37.75;25.65;;;14.60;99.90;;;;;;4964657;29;20093;-57
2022/03/22 11:13:02;;;;;;;42.15;26.10;;;14.60;99.90;;;;;;4963676;28;20387;-56
2022/03/22 11:15:31;;;;;;;40.50;25.75;;;14.80;99.90;;;;;;4964577;28;20047;-57
2022/03/22 11:17:57;;;;;;;38.33;25.55;;;14.90;99.90;;;;;;4964118;28;20043;-57
2022/03/22 11:20:25;;;;;;;39.63;25.38;;;14.90;99.90;;;;;;4963814;28;20039;-57
2022/03/22 11:22:55;;;;;;;39.40;24.83;;;15.10;99.90;;;;;;4964200;28;20067;-58
2022/03/22 11:25:35;;;;;;;37.72;25.50;;;15.20;99.90;;;;;;4963245;28;20063;-57
2022/03/22 11:28:13;;;;;;;44.50;26.88;;;15.20;99.90;;;;;;4964748;28;20058;-57
2022/03/22 11:30:42;;;;;;;36.88;24.00;;;15.40;99.90;;;;;;4963879;28;20054;-58
2022/03/22 11:36:12;;;;;;;36.00;24.23;;;15.50;99.90;;;;;;4964434;29;20078;-56
2022/03/22 11:38:52;;;;;;;41.17;23.77;;;15.60;99.90;;;;;;4963174;28;20054;-57
2022/03/22 11:44:41;;;;;;;34.53;22.55;;;15.90;99.90;;;;;;4964186;29;20113;-57
2022/03/22 11:47:14;;;;;;;35.50;22.35;;;16.00;99.90;;;;;;4962120;28;20058;-57
2022/03/22 11:49:58;;;;;;;35.50;22.23;;;16.10;99.90;;;;;;4964247;28;20070;-57
2022/03/22 11:52:40;;;;;;;34.28;22.13;;;16.20;99.90;;;;;;4963646;28;20130;-57
2022/03/22 11:55:09;;;;;;;36.45;20.73;;;16.30;99.90;;;;;;4962805;28;20419;-57
2022/03/22 11:57:48;;;;;;;37.03;22.77;;;16.30;99.90;;;;;;4964279;29;20039;-57
2022/03/22 12:00:16;;;;;;;37.47;22.85;;;16.50;99.90;;;;;;4962917;28;20061;-57
2022/03/22 12:02:44;;;;;;;33.78;22.13;;;16.60;99.90;;;;;;4963353;28;20055;-58
2022/03/22 12:05:10;;;;;;;31.13;21.92;;;16.50;99.90;;;;;;4961926;29;20094;-57
2022/03/22 12:07:38;;;;;;;35.38;21.85;;;16.70;99.90;;;;;;4962853;28;20167;-59
2022/03/22 12:10:15;;;;;;;36.20;22.63;;;16.80;99.90;;;;;;4962498;29;20046;-58
2022/03/22 12:12:54;;;;;;;35.47;22.80;;;16.80;99.90;;;;;;4962068;28;20055;-57
2022/03/22 12:15:23;;;;;;;35.80;22.17;;;16.80;99.90;;;;;;4963724;28;20043;-57
2022/03/22 12:17:50;;;;;;;37.20;22.30;;;16.90;99.90;;;;;;4962813;28;20078;-56
2022/03/22 12:20:21;;;;;;;38.50;23.20;;;16.90;99.90;;;;;;4962674;28;20057;-57
2022/03/22 12:23:00;;;;;;;33.38;22.83;;;16.90;99.90;;;;;;4963396;28;20046;-57
2022/03/22 12:25:29;;;;;;;33.25;21.77;;;17.00;99.90;;;;;;4960495;29;20484;-57
2022/03/22 12:28:09;;;;;;;33.83;22.02;;;17.10;99.90;;;;;;4963397;29;20070;-57
2022/03/22 12:30:40;;;;;;;34.95;22.38;;;17.20;99.90;;;;;;4962637;28;20546;-57
2022/03/22 12:33:21;;;;;;;39.63;23.60;;;17.20;99.90;;;;;;4962497;29;20039;-57
2022/03/22 12:35:48;;;;;;;35.00;22.37;;;17.20;99.90;;;;;;4961949;29;20062;-55
2022/03/22 12:38:16;;;;;;;34.30;22.13;;;17.30;99.90;;;;;;4961989;28;20047;-57
2022/03/22 12:40:43;;;;;;;34.88;23.55;;;17.20;99.90;;;;;;4963400;28;20055;-57
2022/03/22 12:43:12;;;;;;;35.90;24.27;;;17.20;99.90;;;;;;4960740;29;20117;-57
2022/03/22 12:45:43;;;;;;;35.78;24.10;;;17.30;99.90;;;;;;4962497;29;20463;-57
2022/03/22 12:48:09;;;;;;;34.50;22.85;;;17.30;99.90;;;;;;4961464;29;20043;-57
2022/03/22 12:50:35;;;;;;;36.42;23.50;;;17.40;99.90;;;;;;4961621;28;20047;-58
2022/03/22 12:53:01;;;;;;;35.75;24.25;;;17.30;99.90;;;;;;4963006;29;20054;-57
2022/03/22 12:55:27;;;;;;;36.97;23.05;;;17.50;99.90;;;;;;4960415;29;20492;-57
2022/03/22 12:57:57;;;;;;;34.17;22.70;;;17.50;99.90;;;;;;4962978;29;20110;-57
2022/03/22 13:00:38;;;;;;;33.60;21.77;;;17.50;99.90;;;;;;4961915;29;20039;-57
2022/03/22 13:03:14;;;;;;;37.58;22.67;;;17.60;99.90;;;;;;4961812;28;20114;-57
2022/03/22 13:05:47;;;;;;;36.08;22.02;;;17.60;99.90;;;;;;4962712;29;20058;-57
2022/03/22 13:08:15;;;;;;;33.78;22.30;;;17.70;99.90;;;;;;4961530;28;20054;-57
2022/03/22 13:15:01;;;;;;;33.22;20.90;;;17.70;99.90;;;;;;4961678;29;20071;-57
2022/03/22 13:16:29;;;;;;;32.75;20.20;;;17.80;99.90;;;;;;4961176;29;20047;-57